Fort Bliss, Texas
Current Conditions -  °F | °C
As of 1:58 AM on Sunday 26 Oct 2014 (Local Time) from KBIF Reporting Station
Clear Clear  
Wind Chill: 17°   Ceiling: Unl
Heat Index: 17°   Visibility: 10mi
Dew Point:   Wind: 3mph
Humidity: 56%   Direction: 130°SE
Pressure: 30.11"   Gusts: NA
Location:  31.8335°N, 106.423°W
Report Text: KBIF 260758Z AUTO 13003KT 10SM CLR 17/08 A3011 RMK AO2 SLP139 T01710083 $
Loading
Personal Weather Stations






























Interactive Weather Map
Tropical Storm Tracking
New forecast layout! Learn more

10-Day Weather Forecast

Advertisements
Track Severe Weather on mobile